sensor_id;sensor_type;location;lat;lon;timestamp;pressure;altitude;pressure_sealevel;temperature;humidity
31121;BME280;17770;45.966;13.632;2022-08-05T00:00:35;100414.44;;;33.28;34.05
31121;BME280;17770;45.966;13.632;2022-08-05T00:03:01;100420.16;;;33.25;34.33
31121;BME280;17770;45.966;13.632;2022-08-05T00:05:27;100418.81;;;33.15;34.40
31121;BME280;17770;45.966;13.632;2022-08-05T00:07:53;100413.31;;;33.01;34.55
31121;BME280;17770;45.966;13.632;2022-08-05T00:10:19;100413.44;;;32.93;34.53
31121;BME280;17770;45.966;13.632;2022-08-05T00:12:44;100414.50;;;32.84;34.75
31121;BME280;17770;45.966;13.632;2022-08-05T00:15:10;100413.78;;;32.76;34.79
31121;BME280;17770;45.966;13.632;2022-08-05T00:17:36;100414.50;;;32.84;34.64
31121;BME280;17770;45.966;13.632;2022-08-05T00:20:02;100419.63;;;32.94;34.60
31121;BME280;17770;45.966;13.632;2022-08-05T00:22:28;100415.72;;;32.96;34.51
31121;BME280;17770;45.966;13.632;2022-08-05T00:24:54;100418.34;;;32.61;34.64
31121;BME280;17770;45.966;13.632;2022-08-05T00:27:20;100403.09;;;32.61;35.11
31121;BME280;17770;45.966;13.632;2022-08-05T00:29:45;100405.78;;;32.61;35.09
31121;BME280;17770;45.966;13.632;2022-08-05T00:32:11;100399.44;;;32.62;35.05
31121;BME280;17770;45.966;13.632;2022-08-05T00:34:38;100400.91;;;32.50;35.64
31121;BME280;17770;45.966;13.632;2022-08-05T00:37:04;100387.28;;;32.45;35.18
31121;BME280;17770;45.966;13.632;2022-08-05T00:39:30;100383.94;;;32.29;35.40
31121;BME280;17770;45.966;13.632;2022-08-05T00:41:56;100388.34;;;32.22;35.76
31121;BME280;17770;45.966;13.632;2022-08-05T00:44:22;100389.38;;;32.21;35.63
31121;BME280;17770;45.966;13.632;2022-08-05T00:46:48;100379.44;;;32.29;36.00
31121;BME280;17770;45.966;13.632;2022-08-05T00:49:15;100384.59;;;32.31;35.61
31121;BME280;17770;45.966;13.632;2022-08-05T00:51:44;100380.88;;;32.17;35.96
31121;BME280;17770;45.966;13.632;2022-08-05T00:54:11;100378.22;;;32.03;36.02
31121;BME280;17770;45.966;13.632;2022-08-05T00:56:36;100367.91;;;32.00;36.52
31121;BME280;17770;45.966;13.632;2022-08-05T00:59:02;100369.09;;;31.97;36.55
31121;BME280;17770;45.966;13.632;2022-08-05T01:01:29;100366.13;;;31.92;36.68
31121;BME280;17770;45.966;13.632;2022-08-05T01:03:55;100363.59;;;31.76;36.81
31121;BME280;17770;45.966;13.632;2022-08-05T01:06:21;100368.69;;;31.86;36.20
31121;BME280;17770;45.966;13.632;2022-08-05T01:08:47;100369.66;;;32.07;36.16
31121;BME280;17770;45.966;13.632;2022-08-05T01:13:40;100373.53;;;32.05;36.52
31121;BME280;17770;45.966;13.632;2022-08-05T01:16:12;100376.00;;;31.92;36.94
31121;BME280;17770;45.966;13.632;2022-08-05T01:18:42;100374.44;;;31.74;36.63
31121;BME280;17770;45.966;13.632;2022-08-05T01:21:22;100373.16;;;31.70;36.70
31121;BME280;17770;45.966;13.632;2022-08-05T01:29:48;100367.81;;;31.70;37.44
31121;BME280;17770;45.966;13.632;2022-08-05T01:31:55;100366.75;;;31.79;37.08
31121;BME280;17770;45.966;13.632;2022-08-05T01:34:47;100361.94;;;31.75;37.67
31121;BME280;17770;45.966;13.632;2022-08-05T01:39:41;100363.09;;;31.58;37.42
31121;BME280;17770;45.966;13.632;2022-08-05T01:42:10;100357.78;;;31.72;36.83
31121;BME280;17770;45.966;13.632;2022-08-05T01:44:37;100361.75;;;31.76;37.21
31121;BME280;17770;45.966;13.632;2022-08-05T01:47:03;100350.31;;;31.53;37.73
31121;BME280;17770;45.966;13.632;2022-08-05T01:49:29;100358.22;;;31.39;37.78
31121;BME280;17770;45.966;13.632;2022-08-05T01:52:00;100357.72;;;31.43;37.51
31121;BME280;17770;45.966;13.632;2022-08-05T01:54:28;100357.00;;;31.49;37.21
31121;BME280;17770;45.966;13.632;2022-08-05T01:56:56;100359.78;;;31.56;37.07
31121;BME280;17770;45.966;13.632;2022-08-05T01:59:22;100356.69;;;31.44;37.83
31121;BME280;17770;45.966;13.632;2022-08-05T02:01:50;100365.59;;;31.37;37.93
31121;BME280;17770;45.966;13.632;2022-08-05T02:04:17;100359.44;;;31.36;38.22
31121;BME280;17770;45.966;13.632;2022-08-05T02:06:44;100354.94;;;31.37;37.93
31121;BME280;17770;45.966;13.632;2022-08-05T02:09:10;100357.13;;;31.33;38.28
31121;BME280;17770;45.966;13.632;2022-08-05T02:11:40;100363.31;;;31.26;38.36
31121;BME280;17770;45.966;13.632;2022-08-05T02:14:10;100362.38;;;31.19;38.14
31121;BME280;17770;45.966;13.632;2022-08-05T02:16:44;100363.38;;;31.18;38.18
31121;BME280;17770;45.966;13.632;2022-08-05T02:19:13;100359.00;;;31.25;38.02
31121;BME280;17770;45.966;13.632;2022-08-05T02:21:49;100357.03;;;31.19;38.69
31121;BME280;17770;45.966;13.632;2022-08-05T02:24:17;100363.72;;;31.15;38.29
31121;BME280;17770;45.966;13.632;2022-08-05T02:26:45;100364.88;;;31.20;38.27
31121;BME280;17770;45.966;13.632;2022-08-05T02:29:12;100359.97;;;31.32;38.07
31121;BME280;17770;45.966;13.632;2022-08-05T02:31:41;100360.94;;;31.31;37.94
31121;BME280;17770;45.966;13.632;2022-08-05T02:34:09;100361.97;;;31.30;38.46
31121;BME280;17770;45.966;13.632;2022-08-05T02:36:40;100354.81;;;31.22;38.11
31121;BME280;17770;45.966;13.632;2022-08-05T02:39:07;100350.03;;;31.18;39.00
31121;BME280;17770;45.966;13.632;2022-08-05T02:41:34;100352.00;;;31.24;38.37
31121;BME280;17770;45.966;13.632;2022-08-05T02:44:02;100354.50;;;31.25;38.61
31121;BME280;17770;45.966;13.632;2022-08-05T02:46:28;100344.28;;;31.29;38.17
31121;BME280;17770;45.966;13.632;2022-08-05T02:48:54;100344.81;;;31.24;38.31
31121;BME280;17770;45.966;13.632;2022-08-05T02:51:20;100339.94;;;31.36;38.03
31121;BME280;17770;45.966;13.632;2022-08-05T02:53:47;100344.78;;;31.32;38.37
31121;BME280;17770;45.966;13.632;2022-08-05T02:56:14;100343.28;;;31.30;38.58
31121;BME280;17770;45.966;13.632;2022-08-05T02:58:40;100332.81;;;31.28;38.76
31121;BME280;17770;45.966;13.632;2022-08-05T03:01:12;100345.59;;;31.10;39.18
31121;BME280;17770;45.966;13.632;2022-08-05T03:03:39;100339.31;;;31.03;38.97
31121;BME280;17770;45.966;13.632;2022-08-05T03:06:06;100339.56;;;31.16;39.05
31121;BME280;17770;45.966;13.632;2022-08-05T03:08:33;100338.22;;;31.20;38.54
31121;BME280;17770;45.966;13.632;2022-08-05T03:10:59;100346.91;;;31.14;39.18
31121;BME280;17770;45.966;13.632;2022-08-05T03:13:25;100338.97;;;31.06;39.56
31121;BME280;17770;45.966;13.632;2022-08-05T03:15:51;100340.78;;;31.06;39.44
31121;BME280;17770;45.966;13.632;2022-08-05T03:18:17;100342.34;;;31.00;39.77
31121;BME280;17770;45.966;13.632;2022-08-05T03:20:42;100340.41;;;30.86;39.80
31121;BME280;17770;45.966;13.632;2022-08-05T03:23:08;100338.75;;;30.85;39.43
31121;BME280;17770;45.966;13.632;2022-08-05T03:25:35;100337.13;;;30.84;40.03
31121;BME280;17770;45.966;13.632;2022-08-05T03:28:02;100339.13;;;30.82;39.72
31121;BME280;17770;45.966;13.632;2022-08-05T03:30:29;100339.94;;;30.83;39.60
31121;BME280;17770;45.966;13.632;2022-08-05T03:32:59;100334.47;;;30.84;40.28
31121;BME280;17770;45.966;13.632;2022-08-05T03:35:28;100334.59;;;30.83;39.83
31121;BME280;17770;45.966;13.632;2022-08-05T03:37:57;100334.28;;;30.86;39.57
31121;BME280;17770;45.966;13.632;2022-08-05T03:40:23;100333.38;;;30.93;39.56
31121;BME280;17770;45.966;13.632;2022-08-05T03:42:49;100340.47;;;31.01;39.81
31121;BME280;17770;45.966;13.632;2022-08-05T03:45:15;100336.66;;;31.03;39.32
31121;BME280;17770;45.966;13.632;2022-08-05T03:47:41;100339.13;;;31.05;40.03
31121;BME280;17770;45.966;13.632;2022-08-05T03:50:07;100339.19;;;30.97;39.88
31121;BME280;17770;45.966;13.632;2022-08-05T03:52:34;100346.72;;;30.93;39.77
31121;BME280;17770;45.966;13.632;2022-08-05T03:55:06;100334.72;;;30.89;39.96
31121;BME280;17770;45.966;13.632;2022-08-05T03:57:35;100342.91;;;30.88;39.84
31121;BME280;17770;45.966;13.632;2022-08-05T04:00:06;100336.06;;;30.93;40.29
31121;BME280;17770;45.966;13.632;2022-08-05T04:02:37;100337.69;;;30.94;40.04
31121;BME280;17770;45.966;13.632;2022-08-05T04:05:05;100338.41;;;30.88;39.82
31121;BME280;17770;45.966;13.632;2022-08-05T04:07:32;100338.06;;;30.91;39.77
31121;BME280;17770;45.966;13.632;2022-08-05T04:09:58;100339.06;;;30.90;40.20
31121;BME280;17770;45.966;13.632;2022-08-05T04:12:24;100349.41;;;30.85;40.38
31121;BME280;17770;45.966;13.632;2022-08-05T04:14:50;100348.09;;;30.81;40.46
31121;BME280;17770;45.966;13.632;2022-08-05T04:17:17;100342.13;;;30.71;40.45
31121;BME280;17770;45.966;13.632;2022-08-05T04:19:43;100340.56;;;30.54;40.97
31121;BME280;17770;45.966;13.632;2022-08-05T04:22:09;100354.06;;;30.52;40.71
31121;BME280;17770;45.966;13.632;2022-08-05T04:24:39;100346.06;;;30.52;40.87
31121;BME280;17770;45.966;13.632;2022-08-05T04:27:05;100348.91;;;30.43;41.45
31121;BME280;17770;45.966;13.632;2022-08-05T04:29:31;100354.91;;;30.45;40.87
31121;BME280;17770;45.966;13.632;2022-08-05T04:31:56;100356.72;;;30.52;41.14
31121;BME280;17770;45.966;13.632;2022-08-05T04:34:22;100349.06;;;30.49;40.79
31121;BME280;17770;45.966;13.632;2022-08-05T04:36:48;100342.22;;;30.55;41.37
31121;BME280;17770;45.966;13.632;2022-08-05T04:39:14;100349.41;;;30.46;41.17
31121;BME280;17770;45.966;13.632;2022-08-05T04:41:40;100346.78;;;30.38;41.52
31121;BME280;17770;45.966;13.632;2022-08-05T04:44:06;100351.25;;;30.38;41.50
31121;BME280;17770;45.966;13.632;2022-08-05T04:46:31;100345.94;;;30.38;41.40
31121;BME280;17770;45.966;13.632;2022-08-05T04:48:57;100350.97;;;30.17;41.87
31121;BME280;17770;45.966;13.632;2022-08-05T04:51:23;100349.34;;;30.24;41.55
31121;BME280;17770;45.966;13.632;2022-08-05T04:53:49;100356.97;;;30.27;41.12
31121;BME280;17770;45.966;13.632;2022-08-05T04:56:15;100351.28;;;30.22;41.55
31121;BME280;17770;45.966;13.632;2022-08-05T04:58:41;100359.09;;;30.31;41.43
31121;BME280;17770;45.966;13.632;2022-08-05T05:01:07;100360.16;;;30.14;41.99
31121;BME280;17770;45.966;13.632;2022-08-05T05:03:33;100352.16;;;30.14;41.97
31121;BME280;17770;45.966;13.632;2022-08-05T05:05:59;100358.97;;;30.09;42.22
31121;BME280;17770;45.966;13.632;2022-08-05T05:08:24;100356.31;;;30.09;42.28
31121;BME280;17770;45.966;13.632;2022-08-05T05:10:50;100356.31;;;30.09;42.40
31121;BME280;17770;45.966;13.632;2022-08-05T05:13:16;100362.97;;;30.13;42.04
31121;BME280;17770;45.966;13.632;2022-08-05T05:15:43;100348.81;;;30.20;42.20
31121;BME280;17770;45.966;13.632;2022-08-05T05:18:12;100356.97;;;30.19;42.33
31121;BME280;17770;45.966;13.632;2022-08-05T05:20:41;100350.34;;;30.23;42.10
31121;BME280;17770;45.966;13.632;2022-08-05T05:23:07;100345.63;;;30.33;41.82
31121;BME280;17770;45.966;13.632;2022-08-05T05:25:33;100350.97;;;30.25;41.74
31121;BME280;17770;45.966;13.632;2022-08-05T05:27:58;100348.97;;;30.19;42.11
31121;BME280;17770;45.966;13.632;2022-08-05T05:30:24;100354.19;;;30.04;42.45
31121;BME280;17770;45.966;13.632;2022-08-05T05:32:50;100348.50;;;30.07;41.85
31121;BME280;17770;45.966;13.632;2022-08-05T05:35:16;100354.34;;;30.11;41.99
31121;BME280;17770;45.966;13.632;2022-08-05T05:37:46;100351.88;;;30.01;42.45
31121;BME280;17770;45.966;13.632;2022-08-05T05:40:15;100355.66;;;30.07;42.29
31121;BME280;17770;45.966;13.632;2022-08-05T05:42:42;100355.84;;;30.05;42.37
31121;BME280;17770;45.966;13.632;2022-08-05T05:45:08;100354.03;;;29.98;43.02
31121;BME280;17770;45.966;13.632;2022-08-05T05:47:34;100353.88;;;29.91;42.82
31121;BME280;17770;45.966;13.632;2022-08-05T05:50:00;100350.38;;;29.91;43.15
31121;BME280;17770;45.966;13.632;2022-08-05T05:52:25;100359.03;;;29.85;43.45
31121;BME280;17770;45.966;13.632;2022-08-05T05:54:51;100350.41;;;29.83;43.59
31121;BME280;17770;45.966;13.632;2022-08-05T05:57:17;100353.56;;;29.86;43.35
31121;BME280;17770;45.966;13.632;2022-08-05T05:59:44;100360.34;;;29.97;42.77
31121;BME280;17770;45.966;13.632;2022-08-05T06:02:10;100350.69;;;30.04;42.96
31121;BME280;17770;45.966;13.632;2022-08-05T06:04:36;100350.16;;;30.08;42.70
31121;BME280;17770;45.966;13.632;2022-08-05T06:07:02;100359.47;;;30.12;42.63
31121;BME280;17770;45.966;13.632;2022-08-05T06:09:28;100363.50;;;30.00;42.79
31121;BME280;17770;45.966;13.632;2022-08-05T06:11:54;100363.66;;;29.99;43.16
31121;BME280;17770;45.966;13.632;2022-08-05T06:14:20;100350.34;;;29.99;43.14
31121;BME280;17770;45.966;13.632;2022-08-05T06:16:46;100362.84;;;30.06;43.14
31121;BME280;17770;45.966;13.632;2022-08-05T06:19:12;100360.97;;;30.15;42.88
31121;BME280;17770;45.966;13.632;2022-08-05T06:21:37;100359.81;;;30.17;42.98
31121;BME280;17770;45.966;13.632;2022-08-05T06:24:06;100361.63;;;30.25;42.25
31121;BME280;17770;45.966;13.632;2022-08-05T06:26:32;100361.13;;;30.29;42.27
31121;BME280;17770;45.966;13.632;2022-08-05T06:28:58;100357.13;;;30.25;42.42
31121;BME280;17770;45.966;13.632;2022-08-05T06:31:24;100368.63;;;30.18;42.92
31121;BME280;17770;45.966;13.632;2022-08-05T06:33:50;100365.31;;;30.24;42.94
31121;BME280;17770;45.966;13.632;2022-08-05T06:36:16;100365.31;;;30.24;42.62
31121;BME280;17770;45.966;13.632;2022-08-05T06:38:42;100364.78;;;30.28;42.43
31121;BME280;17770;45.966;13.632;2022-08-05T06:41:07;100353.47;;;30.34;42.51
31121;BME280;17770;45.966;13.632;2022-08-05T06:43:34;100354.59;;;30.40;42.23
31121;BME280;17770;45.966;13.632;2022-08-05T06:46:00;100356.06;;;30.50;41.21
31121;BME280;17770;45.966;13.632;2022-08-05T06:48:26;100357.66;;;30.59;41.02
31121;BME280;17770;45.966;13.632;2022-08-05T06:50:53;100360.63;;;30.64;41.39
31121;BME280;17770;45.966;13.632;2022-08-05T06:53:19;100363.47;;;30.63;41.38
31121;BME280;17770;45.966;13.632;2022-08-05T06:55:45;100362.50;;;30.64;41.44
31121;BME280;17770;45.966;13.632;2022-08-05T06:58:11;100354.28;;;30.74;40.54
31121;BME280;17770;45.966;13.632;2022-08-05T07:00:37;100352.25;;;30.84;40.07
31121;BME280;17770;45.966;13.632;2022-08-05T07:03:02;100358.22;;;30.94;40.27
31121;BME280;17770;45.966;13.632;2022-08-05T07:05:28;100360.81;;;31.02;39.99
31121;BME280;17770;45.966;13.632;2022-08-05T07:07:54;100355.06;;;30.90;40.36
31121;BME280;17770;45.966;13.632;2022-08-05T07:10:20;100355.72;;;30.92;40.18
31121;BME280;17770;45.966;13.632;2022-08-05T07:12:46;100355.31;;;31.03;40.12
31121;BME280;17770;45.966;13.632;2022-08-05T07:15:30;100360.47;;;31.05;40.15
31121;BME280;17770;45.966;13.632;2022-08-05T07:18:15;100354.16;;;30.98;40.17
31121;BME280;17770;45.966;13.632;2022-08-05T07:20:41;100348.31;;;31.02;39.84
31121;BME280;17770;45.966;13.632;2022-08-05T07:23:06;100347.06;;;31.13;39.43
31121;BME280;17770;45.966;13.632;2022-08-05T07:25:32;100345.72;;;31.17;39.33
31121;BME280;17770;45.966;13.632;2022-08-05T07:27:58;100344.69;;;31.18;39.63
31121;BME280;17770;45.966;13.632;2022-08-05T07:30:24;100344.41;;;31.13;39.64
31121;BME280;17770;45.966;13.632;2022-08-05T07:32:50;100342.69;;;31.20;39.72
31121;BME280;17770;45.966;13.632;2022-08-05T07:35:15;100340.63;;;31.30;39.31
31121;BME280;17770;45.966;13.632;2022-08-05T07:37:41;100333.94;;;31.34;38.83
31121;BME280;17770;45.966;13.632;2022-08-05T07:40:07;100339.75;;;31.37;38.38
31121;BME280;17770;45.966;13.632;2022-08-05T07:42:33;100338.59;;;31.40;38.45
31121;BME280;17770;45.966;13.632;2022-08-05T07:44:59;100330.31;;;31.49;37.88
31121;BME280;17770;45.966;13.632;2022-08-05T07:47:25;100334.31;;;31.53;38.12
31121;BME280;17770;45.966;13.632;2022-08-05T07:49:51;100337.06;;;31.60;37.96
31121;BME280;17770;45.966;13.632;2022-08-05T07:52:17;100337.81;;;31.68;37.41
31121;BME280;17770;45.966;13.632;2022-08-05T07:54:44;100342.41;;;31.60;37.02
31121;BME280;17770;45.966;13.632;2022-08-05T07:57:09;100343.69;;;31.64;37.66
31121;BME280;17770;45.966;13.632;2022-08-05T07:59:35;100341.03;;;31.64;37.78
31121;BME280;17770;45.966;13.632;2022-08-05T08:02:01;100339.75;;;31.74;36.94
31121;BME280;17770;45.966;13.632;2022-08-05T08:04:27;100337.38;;;31.79;37.23
31121;BME280;17770;45.966;13.632;2022-08-05T08:06:53;100333.88;;;31.79;36.95
31121;BME280;17770;45.966;13.632;2022-08-05T08:09:20;100331.16;;;31.87;36.83
31121;BME280;17770;45.966;13.632;2022-08-05T08:11:46;100341.13;;;31.93;36.80
31121;BME280;17770;45.966;13.632;2022-08-05T08:14:12;100338.78;;;31.90;36.79
31121;BME280;17770;45.966;13.632;2022-08-05T08:16:37;100334.94;;;31.93;36.43
31121;BME280;17770;45.966;13.632;2022-08-05T08:19:03;100339.00;;;32.03;35.77
31121;BME280;17770;45.966;13.632;2022-08-05T08:21:29;100332.75;;;32.11;36.21
31121;BME280;17770;45.966;13.632;2022-08-05T08:23:55;100335.41;;;32.11;36.37
31121;BME280;17770;45.966;13.632;2022-08-05T08:26:21;100335.31;;;32.19;36.27
31121;BME280;17770;45.966;13.632;2022-08-05T08:28:47;100333.56;;;32.26;35.70
31121;BME280;17770;45.966;13.632;2022-08-05T08:31:13;100338.16;;;32.32;36.04
31121;BME280;17770;45.966;13.632;2022-08-05T08:33:38;100335.13;;;32.35;35.47
31121;BME280;17770;45.966;13.632;2022-08-05T08:36:07;100331.63;;;32.34;35.85
31121;BME280;17770;45.966;13.632;2022-08-05T08:38:33;100331.00;;;32.32;35.56
31121;BME280;17770;45.966;13.632;2022-08-05T08:40:59;100328.50;;;32.31;35.33
31121;BME280;17770;45.966;13.632;2022-08-05T08:43:28;100327.41;;;32.25;35.44
31121;BME280;17770;45.966;13.632;2022-08-05T08:45:55;100335.03;;;32.28;35.08
31121;BME280;17770;45.966;13.632;2022-08-05T08:48:22;100331.47;;;32.50;35.48
31121;BME280;17770;45.966;13.632;2022-08-05T08:50:49;100330.09;;;32.54;35.28
31121;BME280;17770;45.966;13.632;2022-08-05T08:53:15;100327.50;;;32.61;34.61
31121;BME280;17770;45.966;13.632;2022-08-05T08:55:41;100328.03;;;32.56;35.13
31121;BME280;17770;45.966;13.632;2022-08-05T08:58:07;100326.47;;;32.62;35.03
31121;BME280;17770;45.966;13.632;2022-08-05T09:00:34;100322.16;;;32.61;35.07
31121;BME280;17770;45.966;13.632;2022-08-05T09:03:00;100318.44;;;32.62;35.04
31121;BME280;17770;45.966;13.632;2022-08-05T09:05:26;100316.56;;;32.77;34.71
31121;BME280;17770;45.966;13.632;2022-08-05T09:07:52;100319.31;;;32.83;34.89
31121;BME280;17770;45.966;13.632;2022-08-05T09:10:19;100314.41;;;32.87;34.49
31121;BME280;17770;45.966;13.632;2022-08-05T09:12:45;100316.44;;;32.85;34.63
31121;BME280;17770;45.966;13.632;2022-08-05T09:15:10;100310.72;;;32.88;34.54
31121;BME280;17770;45.966;13.632;2022-08-05T09:17:36;100315.50;;;32.92;34.50
31121;BME280;17770;45.966;13.632;2022-08-05T09:20:04;100306.31;;;32.95;34.60
31121;BME280;17770;45.966;13.632;2022-08-05T09:23:02;100311.91;;;33.00;34.41
31121;BME280;17770;45.966;13.632;2022-08-05T09:25:17;100313.16;;;33.04;34.13
31121;BME280;17770;45.966;13.632;2022-08-05T09:27:43;100309.56;;;33.12;33.18
31121;BME280;17770;45.966;13.632;2022-08-05T09:30:09;100309.75;;;33.10;33.67
31121;BME280;17770;45.966;13.632;2022-08-05T09:32:36;100311.78;;;33.08;34.13
31121;BME280;17770;45.966;13.632;2022-08-05T09:35:09;100300.81;;;33.03;33.93
31121;BME280;17770;45.966;13.632;2022-08-05T09:37:36;100299.31;;;33.15;33.29
31121;BME280;17770;45.966;13.632;2022-08-05T09:40:02;100296.75;;;33.28;33.01
31121;BME280;17770;45.966;13.632;2022-08-05T09:42:37;100297.78;;;33.27;33.21
31121;BME280;17770;45.966;13.632;2022-08-05T09:45:06;100299.94;;;33.17;33.25
31121;BME280;17770;45.966;13.632;2022-08-05T09:47:33;100289.75;;;33.27;33.07
31121;BME280;17770;45.966;13.632;2022-08-05T09:49:59;100286.44;;;33.46;32.86
31121;BME280;17770;45.966;13.632;2022-08-05T09:52:28;100284.63;;;33.53;33.03
31121;BME280;17770;45.966;13.632;2022-08-05T09:55:08;100281.13;;;33.53;33.19
31121;BME280;17770;45.966;13.632;2022-08-05T09:57:41;100277.06;;;33.57;32.45
31121;BME280;17770;45.966;13.632;2022-08-05T10:00:11;100277.22;;;33.55;32.82
31121;BME280;17770;45.966;13.632;2022-08-05T10:02:40;100283.81;;;33.53;32.70
31121;BME280;17770;45.966;13.632;2022-08-05T10:05:07;100281.81;;;33.61;32.83
31121;BME280;17770;45.966;13.632;2022-08-05T10:10:09;100281.03;;;33.67;32.26
31121;BME280;17770;45.966;13.632;2022-08-05T10:15:20;100265.25;;;33.79;32.54
31121;BME280;17770;45.966;13.632;2022-08-05T10:18:01;100266.50;;;33.83;32.81
31121;BME280;17770;45.966;13.632;2022-08-05T10:20:28;100272.56;;;33.91;32.56
31121;BME280;17770;45.966;13.632;2022-08-05T10:22:54;100270.94;;;33.97;32.37
31121;BME280;17770;45.966;13.632;2022-08-05T10:25:20;100262.50;;;34.00;32.66
31121;BME280;17770;45.966;13.632;2022-08-05T10:27:46;100268.09;;;34.05;32.74
31121;BME280;17770;45.966;13.632;2022-08-05T10:30:12;100274.75;;;34.15;31.81
31121;BME280;17770;45.966;13.632;2022-08-05T10:32:38;100270.66;;;34.19;31.57
31121;BME280;17770;45.966;13.632;2022-08-05T10:35:04;100266.06;;;34.13;31.73
31121;BME280;17770;45.966;13.632;2022-08-05T10:37:30;100258.47;;;34.17;32.40
31121;BME280;17770;45.966;13.632;2022-08-05T10:39:58;100267.16;;;34.25;32.28
31121;BME280;17770;45.966;13.632;2022-08-05T10:42:28;100257.72;;;34.30;31.97
31121;BME280;17770;45.966;13.632;2022-08-05T10:44:56;100256.03;;;34.28;31.95
31121;BME280;17770;45.966;13.632;2022-08-05T10:47:29;100257.66;;;34.23;32.10
31121;BME280;17770;45.966;13.632;2022-08-05T10:50:05;100255.03;;;34.30;32.05
31121;BME280;17770;45.966;13.632;2022-08-05T10:52:44;100260.22;;;34.38;32.27
31121;BME280;17770;45.966;13.632;2022-08-05T10:55:16;100264.38;;;34.47;31.98
31121;BME280;17770;45.966;13.632;2022-08-05T10:57:43;100255.56;;;34.53;31.23
31121;BME280;17770;45.966;13.632;2022-08-05T11:03:07;100256.59;;;34.58;31.17
31121;BME280;17770;45.966;13.632;2022-08-05T11:05:36;100254.94;;;34.57;31.41
31121;BME280;17770;45.966;13.632;2022-08-05T11:08:03;100251.25;;;34.65;31.14
31121;BME280;17770;45.966;13.632;2022-08-05T11:10:29;100240.28;;;34.53;31.12
31121;BME280;17770;45.966;13.632;2022-08-05T11:12:56;100242.06;;;34.40;31.67
31121;BME280;17770;45.966;13.632;2022-08-05T11:17:49;100238.44;;;34.60;31.68
31121;BME280;17770;45.966;13.632;2022-08-05T11:22:59;100244.88;;;34.66;31.07
31121;BME280;17770;45.966;13.632;2022-08-05T11:25:37;100237.84;;;34.71;31.69
31121;BME280;17770;45.966;13.632;2022-08-05T11:35:58;100228.19;;;34.83;31.25
31121;BME280;17770;45.966;13.632;2022-08-05T11:43:44;100232.94;;;34.94;31.10
31121;BME280;17770;45.966;13.632;2022-08-05T11:46:17;100238.31;;;34.94;31.15
31121;BME280;17770;45.966;13.632;2022-08-05T11:48:49;100229.47;;;35.00;31.35
31121;BME280;17770;45.966;13.632;2022-08-05T11:51:15;100235.84;;;34.93;31.17
31121;BME280;17770;45.966;13.632;2022-08-05T11:53:41;100231.53;;;34.98;31.86
31121;BME280;17770;45.966;13.632;2022-08-05T11:56:07;100232.16;;;35.07;31.26
31121;BME280;17770;45.966;13.632;2022-08-05T11:58:33;100223.28;;;35.13;30.78
31121;BME280;17770;45.966;13.632;2022-08-05T12:06:09;100222.03;;;35.22;31.21
31121;BME280;17770;45.966;13.632;2022-08-05T12:08:54;100221.22;;;35.21;31.18
31121;BME280;17770;45.966;13.632;2022-08-05T12:11:21;100210.47;;;35.21;31.25
31121;BME280;17770;45.966;13.632;2022-08-05T12:16:19;100214.78;;;35.29;30.58
31121;BME280;17770;45.966;13.632;2022-08-05T12:18:45;100213.97;;;35.35;31.04
31121;BME280;17770;45.966;13.632;2022-08-05T12:21:15;100212.94;;;35.36;32.20
31121;BME280;17770;45.966;13.632;2022-08-05T12:23:52;100214.63;;;35.43;31.48
31121;BME280;17770;45.966;13.632;2022-08-05T12:26:18;100207.13;;;35.59;30.91
31121;BME280;17770;45.966;13.632;2022-08-05T12:28:44;100206.56;;;35.50;30.53
31121;BME280;17770;45.966;13.632;2022-08-05T12:31:10;100216.84;;;35.60;30.64
31121;BME280;17770;45.966;13.632;2022-08-05T12:33:35;100211.91;;;35.50;30.01
31121;BME280;17770;45.966;13.632;2022-08-05T12:36:02;100212.13;;;35.55;30.11
31121;BME280;17770;45.966;13.632;2022-08-05T12:38:29;100206.31;;;35.65;30.46
31121;BME280;17770;45.966;13.632;2022-08-05T12:40:55;100204.25;;;35.67;29.49
31121;BME280;17770;45.966;13.632;2022-08-05T12:43:21;100197.81;;;35.74;29.80
31121;BME280;17770;45.966;13.632;2022-08-05T12:45:54;100198.63;;;35.75;29.57
31121;BME280;17770;45.966;13.632;2022-08-05T12:48:23;100198.22;;;35.71;29.58
31121;BME280;17770;45.966;13.632;2022-08-05T12:53:33;100188.75;;;35.62;30.15
31121;BME280;17770;45.966;13.632;2022-08-05T12:56:14;100189.56;;;35.69;29.99
31121;BME280;17770;45.966;13.632;2022-08-05T12:58:40;100188.94;;;35.67;28.97
31121;BME280;17770;45.966;13.632;2022-08-05T13:01:06;100187.06;;;35.74;29.14
31121;BME280;17770;45.966;13.632;2022-08-05T13:03:35;100186.25;;;35.67;30.05
31121;BME280;17770;45.966;13.632;2022-08-05T13:06:01;100182.97;;;35.72;30.28
31121;BME280;17770;45.966;13.632;2022-08-05T13:08:31;100178.38;;;35.85;30.75
31121;BME280;17770;45.966;13.632;2022-08-05T13:11:00;100179.00;;;35.87;30.13
31121;BME280;17770;45.966;13.632;2022-08-05T13:13:26;100176.88;;;35.96;30.04
31121;BME280;17770;45.966;13.632;2022-08-05T13:15:53;100168.63;;;35.97;28.79
31121;BME280;17770;45.966;13.632;2022-08-05T13:18:18;100180.13;;;36.11;28.76
31121;BME280;17770;45.966;13.632;2022-08-05T13:20:45;100175.38;;;36.13;28.63
31121;BME280;17770;45.966;13.632;2022-08-05T13:23:10;100172.50;;;36.08;28.80
31121;BME280;17770;45.966;13.632;2022-08-05T13:25:36;100171.47;;;36.02;30.14
31121;BME280;17770;45.966;13.632;2022-08-05T13:28:02;100172.06;;;36.11;28.81